Time,TemperatureF,DewpointF,PressureIn,WindDirection,WindDirectionDegrees,WindSpeedMPH,WindSpeedGustMPH,Humidity,HourlyPrecipIn,Conditions,Clouds,dailyrainin,SoftwareType,DateUTC
2013-02-25 00:02:00,39.4,38.1,29.95,SE,143,2.0,0.0,95,0.00,RA,OVC,0.00,WeatherDisplay:10.37,2013-02-25 08:02:00,
2013-02-25 00:07:00,39.3,38.0,29.95,SE,133,0.0,0.0,95,0.00,,OVC,0.01,WeatherDisplay:10.37,2013-02-25 08:07:00,
2013-02-25 00:12:00,39.2,37.9,29.95,SE,129,1.0,0.0,95,0.01,RA,OVC,0.01,WeatherDisplay:10.37,2013-02-25 08:12:00,
2013-02-25 00:17:00,39.1,38.1,29.94,SE,135,3.0,0.0,96,0.00,,OVC,0.01,WeatherDisplay:10.37,2013-02-25 08:17:00,
2013-02-25 00:22:00,39.0,38.0,29.94,SSE,148,2.0,0.0,96,0.00,,OVC,0.01,WeatherDisplay:10.37,2013-02-25 08:22:00,
2013-02-25 00:27:00,38.9,37.9,29.94,SE,143,1.0,0.0,96,0.00,,OVC,0.01,WeatherDisplay:10.37,2013-02-25 08:27:00,
2013-02-25 00:32:00,38.8,37.8,29.94,SE,143,1.0,0.0,96,0.01,RA,OVC,0.02,WeatherDisplay:10.37,2013-02-25 08:32:00,
2013-02-25 00:37:00,38.8,37.8,29.94,SSE,158,6.0,0.0,96,0.01,RA,OVC,0.02,WeatherDisplay:10.37,2013-02-25 08:37:00,
2013-02-25 00:42:00,38.8,38.0,29.93,SSE,166,5.0,0.0,97,0.01,RA,OVC,0.03,WeatherDisplay:10.37,2013-02-25 08:42:00,
2013-02-25 00:47:00,38.8,37.7,29.93,SSE,168,5.0,0.0,96,0.01,RA,OVC,0.03,WeatherDisplay:10.37,2013-02-25 08:47:00,
2013-02-25 00:52:00,38.8,38.0,29.93,SSE,161,5.0,0.0,97,0.01,RA,OVC,0.04,WeatherDisplay:10.37,2013-02-25 08:52:00,
2013-02-25 00:57:00,38.7,37.9,29.93,SSE,158,8.0,0.0,97,0.02,RA,OVC,0.05,WeatherDisplay:10.37,2013-02-25 08:57:00,
2013-02-25 01:02:00,38.6,37.8,29.93,SSE,154,7.0,0.0,97,0.01,RA,OVC,0.05,WeatherDisplay:10.37,2013-02-25 09:02:00,
2013-02-25 01:07:00,38.5,37.7,29.93,SSE,163,3.0,0.0,97,0.01,RA,OVC,0.06,WeatherDisplay:10.37,2013-02-25 09:07:00,
2013-02-25 01:12:00,38.4,37.6,29.92,SSE,164,3.0,0.0,97,0.01,RA,OVC,0.06,WeatherDisplay:10.37,2013-02-25 09:12:00,
2013-02-25 01:17:00,38.4,37.6,29.92,SSE,160,3.0,0.0,97,0.01,RA,OVC,0.07,WeatherDisplay:10.37,2013-02-25 09:17:00,
2013-02-25 01:22:00,38.3,37.6,29.92,SSE,157,3.0,0.0,97,0.01,RA,OVC,0.07,WeatherDisplay:10.37,2013-02-25 09:22:00,
2013-02-25 01:27:00,38.3,37.5,29.92,SSE,160,0.0,0.0,97,0.00,,OVC,0.07,WeatherDisplay:10.37,2013-02-25 09:27:00,
2013-02-25 01:32:00,38.3,37.5,29.92,SSE,168,2.0,0.0,97,0.00,,OVC,0.07,WeatherDisplay:10.37,2013-02-25 09:32:00,
2013-02-25 01:37:00,38.2,37.4,29.92,SSE,161,2.0,0.0,97,0.01,RA,OVC,0.08,WeatherDisplay:10.37,2013-02-25 09:37:00,
2013-02-25 01:42:00,38.2,37.4,29.91,SSE,154,0.0,0.0,97,0.01,RA,OVC,0.08,WeatherDisplay:10.37,2013-02-25 09:42:00,
2013-02-25 01:47:00,38.2,37.4,29.91,SE,141,1.0,0.0,97,0.00,,OVC,0.08,WeatherDisplay:10.37,2013-02-25 09:47:00,
2013-02-25 01:52:00,38.1,37.6,29.91,SE,131,1.0,0.0,98,0.01,RA,OVC,0.09,WeatherDisplay:10.37,2013-02-25 09:52:00,
2013-02-25 01:57:00,38.1,37.6,29.91,SE,139,0.0,0.0,98,0.01,RA,OVC,0.09,WeatherDisplay:10.37,2013-02-25 09:57:00,
2013-02-25 02:02:00,38.1,37.3,29.91,SSE,149,0.0,0.0,97,0.00,,OVC,0.09,WeatherDisplay:10.37,2013-02-25 10:02:00,
2013-02-25 02:07:00,38.0,37.5,29.91,SE,134,0.0,0.0,98,0.00,,OVC,0.09,WeatherDisplay:10.37,2013-02-25 10:07:00,
2013-02-25 02:12:00,38.0,37.5,29.91,SE,125,0.0,0.0,98,0.01,RA,OVC,0.10,WeatherDisplay:10.37,2013-02-25 10:12:00,
2013-02-25 02:17:00,38.0,37.5,29.90,SE,129,0.0,0.0,98,0.01,RA,OVC,0.10,WeatherDisplay:10.37,2013-02-25 10:17:00,
2013-02-25 02:22:00,38.0,37.5,29.90,SE,135,0.0,0.0,98,0.00,,OVC,0.10,WeatherDisplay:10.37,2013-02-25 10:22:00,
2013-02-25 02:27:00,38.0,37.5,29.90,SE,139,0.0,0.0,98,0.01,RA,OVC,0.11,WeatherDisplay:10.37,2013-02-25 10:27:00,
2013-02-25 02:32:00,37.9,37.4,29.90,ESE,115,0.0,0.0,98,0.01,RA,OVC,0.11,WeatherDisplay:10.37,2013-02-25 10:32:00,
2013-02-25 02:37:00,37.9,37.4,29.90,ESE,113,1.0,0.0,98,0.00,,OVC,0.11,WeatherDisplay:10.37,2013-02-25 10:37:00,
2013-02-25 02:42:00,37.9,37.4,29.90,ESE,112,0.0,0.0,98,0.01,RA,OVC,0.12,WeatherDisplay:10.37,2013-02-25 10:42:00,
2013-02-25 02:47:00,37.9,37.4,29.89,East,98,1.0,0.0,98,0.01,RA,OVC,0.12,WeatherDisplay:10.37,2013-02-25 10:47:00,
2013-02-25 02:52:00,37.9,37.4,29.89,East,89,0.0,0.0,98,0.00,,OVC,0.12,WeatherDisplay:10.37,2013-02-25 10:52:00,
2013-02-25 02:57:00,37.9,37.4,29.89,East,83,0.0,0.0,98,0.01,RA,OVC,0.13,WeatherDisplay:10.37,2013-02-25 10:57:00,
2013-02-25 03:02:00,37.8,37.3,29.89,East,87,0.0,0.0,98,0.01,RA,OVC,0.13,WeatherDisplay:10.37,2013-02-25 11:02:00,
2013-02-25 03:07:00,37.8,37.3,29.89,East,92,1.0,0.0,98,0.00,,OVC,0.13,WeatherDisplay:10.37,2013-02-25 11:07:00,
2013-02-25 03:12:00,37.8,37.3,29.89,ESE,103,0.0,0.0,98,0.00,,OVC,0.13,WeatherDisplay:10.37,2013-02-25 11:12:00,
2013-02-25 03:17:00,37.7,37.2,29.89,ESE,106,0.0,0.0,98,0.00,,OVC,0.13,WeatherDisplay:10.37,2013-02-25 11:17:00,
2013-02-25 03:22:00,37.7,37.2,29.89,ESE,114,0.0,0.0,98,0.01,RA,OVC,0.14,WeatherDisplay:10.37,2013-02-25 11:22:00,
2013-02-25 03:27:00,37.7,37.2,29.89,ESE,118,0.0,0.0,98,0.01,RA,OVC,0.14,WeatherDisplay:10.37,2013-02-25 11:27:00,
2013-02-25 03:32:00,37.6,37.1,29.89,SE,126,0.0,0.0,98,0.00,,OVC,0.14,WeatherDisplay:10.37,2013-02-25 11:32:00,
2013-02-25 03:37:00,37.6,37.1,29.89,SE,135,1.0,0.0,98,0.00,,OVC,0.14,WeatherDisplay:10.37,2013-02-25 11:37:00,
2013-02-25 03:42:00,37.6,37.1,29.89,SE,129,1.0,0.0,98,0.00,,OVC,0.14,WeatherDisplay:10.37,2013-02-25 11:42:00,
2013-02-25 03:47:00,37.6,37.1,29.89,ESE,105,1.0,0.0,98,0.00,,OVC,0.14,WeatherDisplay:10.37,2013-02-25 11:47:00,
2013-02-25 03:52:00,37.6,37.1,29.88,SE,126,2.0,0.0,98,0.00,,OVC,0.14,WeatherDisplay:10.37,2013-02-25 11:52:00,
2013-02-25 04:02:00,37.8,37.3,29.89,SSE,156,5.0,0.0,98,0.00,,OVC,0.14,WeatherDisplay:10.37,2013-02-25 12:02:00,
2013-02-25 04:07:00,37.9,37.4,29.89,SSE,155,6.0,0.0,98,0.00,,OVC,0.14,WeatherDisplay:10.37,2013-02-25 12:07:00,
2013-02-25 04:12:00,38.1,37.6,29.89,SSE,165,2.0,0.0,98,0.00,,OVC,0.14,WeatherDisplay:10.37,2013-02-25 12:12:00,
2013-02-25 04:17:00,38.2,37.7,29.89,SSE,166,6.0,0.0,98,0.00,,OVC,0.14,WeatherDisplay:10.37,2013-02-25 12:17:00,
2013-02-25 04:22:00,38.4,37.9,29.89,SSE,163,5.0,0.0,98,0.00,,OVC,0.14,WeatherDisplay:10.37,2013-02-25 12:22:00,
2013-02-25 04:27:00,38.6,38.3,29.89,SSE,154,5.0,0.0,99,0.00,,OVC,0.14,WeatherDisplay:10.37,2013-02-25 12:27:00,
2013-02-25 04:32:00,38.7,38.4,29.89,SSE,160,2.0,0.0,99,0.00,,OVC,0.14,WeatherDisplay:10.37,2013-02-25 12:32:00,
2013-02-25 04:37:00,38.7,38.4,29.89,SSE,167,3.0,0.0,99,0.00,,OVC,0.14,WeatherDisplay:10.37,2013-02-25 12:37:00,
2013-02-25 04:42:00,38.8,38.5,29.90,South,169,5.0,0.0,99,0.00,,OVC,0.14,WeatherDisplay:10.37,2013-02-25 12:42:00,
2013-02-25 04:47:00,38.8,38.5,29.90,South,170,3.0,0.0,99,0.00,,OVC,0.14,WeatherDisplay:10.37,2013-02-25 12:47:00,
2013-02-25 04:52:00,38.8,38.5,29.91,South,170,2.0,0.0,99,0.00,,OVC,0.14,WeatherDisplay:10.37,2013-02-25 12:52:00,
2013-02-25 04:57:00,38.8,38.5,29.91,South,179,3.0,0.0,99,0.00,,OVC,0.14,WeatherDisplay:10.37,2013-02-25 12:57:00,
2013-02-25 05:07:00,38.8,38.5,29.91,South,177,3.0,0.0,99,0.00,,OVC,0.14,WeatherDisplay:10.37,2013-02-25 13:07:00,
2013-02-25 05:12:00,38.7,38.5,29.91,South,188,3.0,0.0,99,0.00,,OVC,0.14,WeatherDisplay:10.37,2013-02-25 13:12:00,
2013-02-25 05:17:00,38.7,38.4,29.91,South,185,3.0,0.0,99,0.00,,OVC,0.14,WeatherDisplay:10.37,2013-02-25 13:17:00,
2013-02-25 05:27:00,38.7,38.4,29.92,South,183,3.0,0.0,99,0.00,,OVC,0.14,WeatherDisplay:10.37,2013-02-25 13:27:00,
2013-02-25 05:32:00,38.7,38.4,29.92,SSE,167,3.0,0.0,99,0.00,,OVC,0.14,WeatherDisplay:10.37,2013-02-25 13:32:00,
2013-02-25 05:37:00,38.6,38.4,29.92,SSE,168,2.0,0.0,99,0.00,,OVC,0.14,WeatherDisplay:10.37,2013-02-25 13:37:00,
2013-02-25 05:42:00,38.6,38.3,29.92,SSE,164,5.0,0.0,99,0.00,,OVC,0.14,WeatherDisplay:10.37,2013-02-25 13:42:00,
2013-02-25 05:47:00,38.6,38.3,29.92,SSE,168,3.0,0.0,99,0.00,,OVC,0.14,WeatherDisplay:10.37,2013-02-25 13:47:00,
2013-02-25 05:52:00,38.6,38.1,29.92,South,172,3.0,0.0,98,0.00,,OVC,0.14,WeatherDisplay:10.37,2013-02-25 13:52:00,
2013-02-25 05:57:00,38.6,38.1,29.92,SSE,167,2.0,0.0,98,0.00,,OVC,0.14,WeatherDisplay:10.37,2013-02-25 13:57:00,
2013-02-25 06:02:00,38.5,38.0,29.92,SSE,162,3.0,0.0,98,0.00,,OVC,0.14,WeatherDisplay:10.37,2013-02-25 14:02:00,
2013-02-25 06:07:00,38.5,38.0,29.93,South,171,1.0,0.0,98,0.00,,OVC,0.14,WeatherDisplay:10.37,2013-02-25 14:07:00,
2013-02-25 06:12:00,38.5,38.0,29.93,South,181,2.0,0.0,98,0.00,,OVC,0.14,WeatherDisplay:10.37,2013-02-25 14:12:00,
2013-02-25 06:17:00,38.4,37.9,29.93,South,174,2.0,0.0,98,0.00,,OVC,0.14,WeatherDisplay:10.37,2013-02-25 14:17:00,
2013-02-25 06:27:00,38.4,37.9,29.93,SSE,157,1.0,0.0,98,0.00,CLR,OVC,0.14,WeatherDisplay:10.37,2013-02-25 14:27:00,
2013-02-25 06:32:00,38.4,37.9,29.93,SSE,162,1.0,0.0,98,0.00,CLR,OVC,0.14,WeatherDisplay:10.37,2013-02-25 14:32:00,
2013-02-25 06:37:00,38.4,37.9,29.93,SSE,167,2.0,0.0,98,0.00,CLR,OVC,0.14,WeatherDisplay:10.37,2013-02-25 14:37:00,
2013-02-25 06:42:00,38.4,37.9,29.92,SSE,157,5.0,0.0,98,0.00,CLR,OVC,0.14,WeatherDisplay:10.37,2013-02-25 14:42:00,
2013-02-25 06:47:00,38.4,37.8,29.92,SSE,160,3.0,0.0,98,0.00,CLR,OVC,0.14,WeatherDisplay:10.37,2013-02-25 14:47:00,
2013-02-25 06:52:00,38.4,37.9,29.93,South,185,1.0,0.0,98,0.00,CLR,OVC,0.14,WeatherDisplay:10.37,2013-02-25 14:52:00,
2013-02-25 06:57:00,38.3,37.8,29.92,South,183,5.0,0.0,98,0.00,CLR,OVC,0.14,WeatherDisplay:10.37,2013-02-25 14:57:00,
2013-02-25 07:02:00,38.3,37.8,29.93,South,175,2.0,0.0,98,0.00,CLR,OVC,0.14,WeatherDisplay:10.37,2013-02-25 15:02:00,
2013-02-25 07:07:00,38.3,37.8,29.93,South,169,2.0,0.0,98,0.00,CLR,OVC,0.14,WeatherDisplay:10.37,2013-02-25 15:07:00,
2013-02-25 07:12:00,38.3,37.8,29.93,SSE,168,1.0,0.0,98,0.00,CLR,OVC,0.14,WeatherDisplay:10.37,2013-02-25 15:12:00,
2013-02-25 07:17:00,38.3,37.8,29.93,South,179,2.0,0.0,98,0.00,CLR,OVC,0.14,WeatherDisplay:10.37,2013-02-25 15:17:00,
2013-02-25 07:22:00,38.3,37.8,29.93,South,175,1.0,0.0,98,0.00,CLR,OVC,0.14,WeatherDisplay:10.37,2013-02-25 15:22:00,
2013-02-25 07:27:00,38.3,37.7,29.94,SSE,166,2.0,0.0,98,0.00,CLR,OVC,0.14,WeatherDisplay:10.37,2013-02-25 15:27:00,
2013-02-25 07:32:00,38.2,37.7,29.94,South,187,2.0,0.0,98,0.00,CLR,OVC,0.14,WeatherDisplay:10.37,2013-02-25 15:32:00,
2013-02-25 07:37:00,38.2,37.7,29.93,South,179,5.0,0.0,98,0.00,CLR,OVC,0.14,WeatherDisplay:10.37,2013-02-25 15:37:00,
2013-02-25 07:42:00,38.2,37.7,29.93,South,184,2.0,0.0,98,0.00,CLR,OVC,0.14,WeatherDisplay:10.37,2013-02-25 15:42:00,
2013-02-25 07:47:00,38.2,37.7,29.94,South,187,3.0,0.0,98,0.00,CLR,OVC,0.14,WeatherDisplay:10.37,2013-02-25 15:47:00,
2013-02-25 07:52:00,38.2,37.7,29.94,South,179,2.0,0.0,98,0.00,CLR,OVC,0.14,WeatherDisplay:10.37,2013-02-25 15:52:00,
2013-02-25 07:57:00,38.2,37.7,29.94,South,191,2.0,0.0,98,0.00,CLR,OVC,0.14,WeatherDisplay:10.37,2013-02-25 15:57:00,
2013-02-25 08:02:00,38.2,37.7,29.94,South,188,5.0,0.0,98,0.00,CLR,OVC,0.14,WeatherDisplay:10.37,2013-02-25 16:02:00,
2013-02-25 08:07:00,38.2,37.7,29.95,South,180,2.0,0.0,98,0.00,CLR,OVC,0.14,WeatherDisplay:10.37,2013-02-25 16:07:00,
2013-02-25 08:12:00,38.2,37.7,29.95,South,182,3.0,0.0,98,0.00,CLR,OVC,0.14,WeatherDisplay:10.37,2013-02-25 16:12:00,
2013-02-25 08:17:00,38.2,37.7,29.95,SSW,195,1.0,0.0,98,0.00,CLR,OVC,0.14,WeatherDisplay:10.37,2013-02-25 16:17:00,
2013-02-25 08:22:00,38.2,37.7,29.95,SSW,196,2.0,0.0,98,0.00,CLR,OVC,0.14,WeatherDisplay:10.37,2013-02-25 16:22:00,
2013-02-25 08:27:00,38.3,37.8,29.95,South,174,3.0,0.0,98,0.00,CLR,OVC,0.14,WeatherDisplay:10.37,2013-02-25 16:27:00,
2013-02-25 08:32:00,38.3,37.8,29.95,South,169,5.0,0.0,98,0.00,CLR,OVC,0.14,WeatherDisplay:10.37,2013-02-25 16:32:00,
2013-02-25 08:37:00,38.3,37.8,29.96,South,182,2.0,0.0,98,0.00,CLR,OVC,0.14,WeatherDisplay:10.37,2013-02-25 16:37:00,
2013-02-25 08:42:00,38.3,37.8,29.95,South,178,6.0,0.0,98,0.00,CLR,OVC,0.14,WeatherDisplay:10.37,2013-02-25 16:42:00,
2013-02-25 08:52:00,38.2,37.7,29.97,South,184,3.0,0.0,98,0.00,CLR,OVC,0.14,WeatherDisplay:10.37,2013-02-25 16:52:00,
2013-02-25 08:57:00,38.2,37.7,29.97,SSW,198,3.0,0.0,98,0.00,CLR,OVC,0.14,WeatherDisplay:10.37,2013-02-25 16:57:00,
2013-02-25 09:02:00,38.2,37.7,29.97,South,181,2.0,0.0,98,0.00,CLR,OVC,0.14,WeatherDisplay:10.37,2013-02-25 17:02:00,
2013-02-25 09:12:00,38.2,37.7,29.97,South,178,3.0,0.0,98,0.00,CLR,OVC,0.14,WeatherDisplay:10.37,2013-02-25 17:12:00,
2013-02-25 09:17:00,38.3,37.8,29.97,South,175,3.0,0.0,98,0.00,CLR,OVC,0.14,WeatherDisplay:10.37,2013-02-25 17:17:00,
2013-02-25 09:27:00,38.3,37.8,29.98,South,190,1.0,0.0,98,0.00,CLR,OVC,0.14,WeatherDisplay:10.37,2013-02-25 17:27:00,
2013-02-25 09:32:00,38.4,37.8,29.98,South,173,3.0,0.0,98,0.00,CLR,OVC,0.14,WeatherDisplay:10.37,2013-02-25 17:32:00,
2013-02-25 09:37:00,38.4,37.9,29.98,South,169,2.0,0.0,98,0.00,CLR,OVC,0.14,WeatherDisplay:10.37,2013-02-25 17:37:00,
2013-02-25 09:42:00,38.4,37.6,29.99,South,189,1.0,0.0,97,0.00,CLR,OVC,0.14,WeatherDisplay:10.37,2013-02-25 17:42:00,
2013-02-25 09:47:00,38.4,37.6,29.99,South,180,2.0,0.0,97,0.00,CLR,OVC,0.14,WeatherDisplay:10.37,2013-02-25 17:47:00,
2013-02-25 09:52:00,38.5,37.7,29.99,South,178,2.0,0.0,97,0.00,CLR,OVC,0.14,WeatherDisplay:10.37,2013-02-25 17:52:00,
2013-02-25 09:57:00,38.5,37.7,29.99,South,171,3.0,0.0,97,0.00,CLR,OVC,0.14,WeatherDisplay:10.37,2013-02-25 17:57:00,
2013-02-25 10:02:00,38.5,38.0,29.99,SSE,166,1.0,0.0,98,0.00,CLR,OVC,0.14,WeatherDisplay:10.37,2013-02-25 18:02:00,
2013-02-25 10:07:00,38.6,38.1,29.99,South,171,1.0,0.0,98,0.00,CLR,OVC,0.14,WeatherDisplay:10.37,2013-02-25 18:07:00,
2013-02-25 10:12:00,38.6,37.8,29.99,SSE,156,2.0,0.0,97,0.00,CLR,OVC,0.14,WeatherDisplay:10.37,2013-02-25 18:12:00,
2013-02-25 10:17:00,38.6,37.8,29.99,SSE,164,3.0,0.0,97,0.00,CLR,OVC,0.14,WeatherDisplay:10.37,2013-02-25 18:17:00,
2013-02-25 10:22:00,38.6,37.9,29.99,SSE,163,2.0,0.0,97,0.00,CLR,OVC,0.14,WeatherDisplay:10.37,2013-02-25 18:22:00,
2013-02-25 10:27:00,38.7,37.9,29.99,South,176,5.0,0.0,97,0.00,CLR,OVC,0.14,WeatherDisplay:10.37,2013-02-25 18:27:00,
2013-02-25 10:32:00,38.7,37.9,30.00,South,177,1.0,0.0,97,0.00,CLR,OVC,0.14,WeatherDisplay:10.37,2013-02-25 18:32:00,
2013-02-25 10:37:00,38.8,38.0,30.00,South,179,3.0,0.0,97,0.00,CLR,OVC,0.14,WeatherDisplay:10.37,2013-02-25 18:37:00,
2013-02-25 10:42:00,38.9,38.1,30.01,South,176,1.0,0.0,97,0.00,CLR,OVC,0.14,WeatherDisplay:10.37,2013-02-25 18:42:00,
2013-02-25 10:47:00,39.0,38.2,30.01,SSE,167,1.0,0.0,97,0.00,CLR,OVC,0.14,WeatherDisplay:10.37,2013-02-25 18:47:00,
2013-02-25 10:52:00,39.0,38.2,30.01,South,177,1.0,0.0,97,0.00,CLR,OVC,0.14,WeatherDisplay:10.37,2013-02-25 18:52:00,
2013-02-25 10:57:00,39.1,38.3,30.01,South,182,1.0,0.0,97,0.00,CLR,OVC,0.14,WeatherDisplay:10.37,2013-02-25 18:57:00,
2013-02-25 11:02:00,39.1,38.3,30.01,SSE,167,2.0,0.0,97,0.00,CLR,OVC,0.14,WeatherDisplay:10.37,2013-02-25 19:02:00,
2013-02-25 11:27:00,39.6,38.8,30.03,SSW,198,1.0,4.0,97,0.00,RA,OVC,0.14,WeatherDisplay:10.37,2013-02-25 19:27:00,
2013-02-25 11:32:00,39.7,38.9,30.03,SW,232,0.0,0.0,97,0.00,RA,OVC,0.14,WeatherDisplay:10.37,2013-02-25 19:32:00,
2013-02-25 11:37:00,39.8,39.0,30.04,SW,227,0.0,0.0,97,0.00,CLR,OVC,0.14,WeatherDisplay:10.37,2013-02-25 19:37:00,
2013-02-25 11:42:00,39.9,39.1,30.04,SSW,206,0.0,0.0,97,0.00,CLR,OVC,0.14,WeatherDisplay:10.37,2013-02-25 19:42:00,
2013-02-25 11:47:00,40.0,39.2,30.04,SSW,201,1.0,0.0,97,0.00,CLR,OVC,0.14,WeatherDisplay:10.37,2013-02-25 19:47:00,
2013-02-25 11:52:00,40.2,39.4,30.05,SSW,195,2.0,0.0,97,0.00,CLR,OVC,0.14,WeatherDisplay:10.37,2013-02-25 19:52:00,
2013-02-25 11:57:00,40.4,39.6,30.05,SSW,194,0.0,0.0,97,0.00,CLR,OVC,0.14,WeatherDisplay:10.37,2013-02-25 19:57:00,
2013-02-25 12:02:00,40.4,39.6,30.05,South,190,0.0,0.0,97,0.00,CLR,OVC,0.14,WeatherDisplay:10.37,2013-02-25 20:02:00,
2013-02-25 12:07:00,40.5,39.7,30.05,South,182,0.0,0.0,97,0.00,CLR,OVC,0.14,WeatherDisplay:10.37,2013-02-25 20:07:00,
2013-02-25 12:12:00,40.6,39.8,30.05,South,172,0.0,0.0,97,0.00,CLR,OVC,0.14,WeatherDisplay:10.37,2013-02-25 20:12:00,
2013-02-25 12:17:00,40.8,40.0,30.05,SSE,162,1.0,0.0,97,0.00,CLR,OVC,0.14,WeatherDisplay:10.37,2013-02-25 20:17:00,
2013-02-25 12:22:00,41.0,40.2,30.06,South,174,1.0,0.0,97,0.00,CLR,OVC,0.14,WeatherDisplay:10.37,2013-02-25 20:22:00,
2013-02-25 12:27:00,41.1,40.3,30.06,SSE,168,1.0,0.0,97,0.00,CLR,OVC,0.14,WeatherDisplay:10.37,2013-02-25 20:27:00,
2013-02-25 12:32:00,41.2,40.1,30.06,South,171,0.0,0.0,96,0.00,CLR,OVC,0.14,WeatherDisplay:10.37,2013-02-25 20:32:00,
2013-02-25 12:37:00,41.3,40.2,30.06,SSE,166,2.0,0.0,96,0.00,CLR,OVC,0.14,WeatherDisplay:10.37,2013-02-25 20:37:00,
2013-02-25 12:42:00,41.4,40.1,30.06,SSE,162,2.0,0.0,95,0.00,CLR,OVC,0.14,WeatherDisplay:10.37,2013-02-25 20:42:00,
2013-02-25 12:47:00,41.7,40.3,30.06,South,171,0.0,0.0,95,0.00,CLR,OVC,0.14,WeatherDisplay:10.37,2013-02-25 20:47:00,
2013-02-25 12:52:00,42.1,40.7,30.06,South,181,1.0,0.0,95,0.00,CLR,OVC,0.14,WeatherDisplay:10.37,2013-02-25 20:52:00,
2013-02-25 12:57:00,42.5,40.9,30.07,South,190,2.0,0.0,94,0.00,CLR,OVC,0.14,WeatherDisplay:10.37,2013-02-25 20:57:00,
2013-02-25 13:02:00,43.1,41.5,30.06,South,171,3.0,0.0,94,0.00,CLR,OVC,0.14,WeatherDisplay:10.37,2013-02-25 21:02:00,
2013-02-25 13:07:00,43.5,41.3,30.07,South,175,3.0,0.0,92,0.00,CLR,OVC,0.14,WeatherDisplay:10.37,2013-02-25 21:07:00,
2013-02-25 13:12:00,44.0,41.8,30.07,South,185,6.0,0.0,92,0.00,CLR,OVC,0.14,WeatherDisplay:10.37,2013-02-25 21:12:00,
2013-02-25 13:17:00,44.5,41.7,30.07,SSE,165,1.0,0.0,90,0.00,CLR,OVC,0.14,WeatherDisplay:10.37,2013-02-25 21:17:00,
2013-02-25 13:22:00,45.4,43.2,30.07,SSE,168,3.0,0.0,92,0.00,CLR,OVC,0.14,WeatherDisplay:10.37,2013-02-25 21:22:00,
2013-02-25 13:27:00,46.0,42.4,30.07,SSE,163,5.0,0.0,87,0.00,CLR,OVC,0.14,WeatherDisplay:10.37,2013-02-25 21:27:00,
2013-02-25 13:32:00,46.5,43.1,30.07,SSE,167,1.0,0.0,88,0.00,CLR,OVC,0.14,WeatherDisplay:10.37,2013-02-25 21:32:00,
2013-02-25 13:37:00,47.0,43.0,30.07,South,172,2.0,0.0,86,0.00,CLR,OVC,0.14,WeatherDisplay:10.37,2013-02-25 21:37:00,
2013-02-25 13:42:00,47.2,43.3,30.07,South,172,1.0,0.0,86,0.00,CLR,OVC,0.14,WeatherDisplay:10.37,2013-02-25 21:42:00,
2013-02-25 14:32:00,46.4,43.4,30.08,NE,37,3.0,0.0,89,0.00,CLR,OVC,0.14,WeatherDisplay:10.37,2013-02-25 22:32:00,
2013-02-25 15:42:00,43.4,38.0,30.10,West,272,2.0,0.0,81,0.00,CLR,OVC,0.14,WeatherDisplay:10.37,2013-02-25 23:42:00,
2013-02-25 15:47:00,43.2,37.8,30.10,West,273,0.0,0.0,81,0.00,CLR,OVC,0.14,WeatherDisplay:10.37,2013-02-25 23:47:00,
2013-02-25 15:52:00,43.1,36.7,30.11,WNW,287,3.0,0.0,78,0.00,CLR,OVC,0.14,WeatherDisplay:10.37,2013-02-25 23:52:00,
2013-02-25 15:57:00,43.0,36.6,30.11,WNW,296,1.0,0.0,78,0.00,CLR,OVC,0.14,WeatherDisplay:10.37,2013-02-25 23:57:00,
2013-02-25 16:02:00,43.0,36.0,30.11,West,261,3.0,0.0,76,0.00,CLR,OVC,0.14,WeatherDisplay:10.37,2013-02-26 00:02:00,
2013-02-25 16:07:00,43.0,36.3,30.11,WSW,249,5.0,0.0,77,0.00,CLR,OVC,0.14,WeatherDisplay:10.37,2013-02-26 00:07:00,
2013-02-25 16:12:00,43.0,36.6,30.11,West,260,6.0,0.0,78,0.00,CLR,OVC,0.14,WeatherDisplay:10.37,2013-02-26 00:12:00,
2013-02-25 16:17:00,43.1,37.3,30.12,WNW,282,1.0,0.0,80,0.00,CLR,OVC,0.14,WeatherDisplay:10.37,2013-02-26 00:17:00,
2013-02-25 16:22:00,43.0,35.9,30.12,WNW,297,5.0,0.0,76,0.00,CLR,OVC,0.14,WeatherDisplay:10.37,2013-02-26 00:22:00,
2013-02-25 16:27:00,43.0,36.0,30.12,WNW,289,6.0,0.0,76,0.00,CLR,OVC,0.14,WeatherDisplay:10.37,2013-02-26 00:27:00,
2013-02-25 16:32:00,42.8,36.1,30.12,West,281,6.0,0.0,77,0.00,CLR,OVC,0.14,WeatherDisplay:10.37,2013-02-26 00:32:00,
2013-02-25 16:37:00,42.7,35.0,30.12,West,264,1.0,0.0,74,0.00,CLR,OVC,0.14,WeatherDisplay:10.37,2013-02-26 00:37:00,
2013-02-25 16:42:00,42.5,35.8,30.12,WSW,258,5.0,0.0,77,0.00,CLR,OVC,0.14,WeatherDisplay:10.37,2013-02-26 00:42:00,
2013-02-25 16:47:00,42.2,35.9,30.13,West,273,2.0,0.0,78,0.00,CLR,OVC,0.14,WeatherDisplay:10.37,2013-02-26 00:47:00,
2013-02-25 16:52:00,42.0,35.3,30.13,West,272,1.0,0.0,77,0.00,CLR,OVC,0.14,WeatherDisplay:10.37,2013-02-26 00:52:00,
2013-02-25 16:57:00,41.9,35.9,30.13,West,271,5.0,0.0,79,0.00,CLR,OVC,0.14,WeatherDisplay:10.37,2013-02-26 00:57:00,
2013-02-25 17:02:00,41.8,35.4,30.14,WNW,299,1.0,0.0,78,0.00,CLR,OVC,0.14,WeatherDisplay:10.37,2013-02-26 01:02:00,
2013-02-25 17:07:00,41.6,34.9,30.14,West,267,5.0,0.0,77,0.00,CLR,OVC,0.14,WeatherDisplay:10.37,2013-02-26 01:07:00,
2013-02-25 17:12:00,41.5,35.8,30.14,WNW,291,1.0,0.0,80,0.00,CLR,OVC,0.14,WeatherDisplay:10.37,2013-02-26 01:12:00,
2013-02-25 17:17:00,41.3,35.6,30.14,WNW,300,2.0,0.0,80,0.00,CLR,OVC,0.14,WeatherDisplay:10.37,2013-02-26 01:17:00,
2013-02-25 17:22:00,41.2,34.6,30.14,WNW,291,2.0,0.0,77,0.00,CLR,OVC,0.14,WeatherDisplay:10.37,2013-02-26 01:22:00,
2013-02-25 17:27:00,41.2,35.5,30.14,WNW,282,1.0,0.0,80,0.00,CLR,OVC,0.14,WeatherDisplay:10.37,2013-02-26 01:27:00,
2013-02-25 17:32:00,41.0,35.3,30.15,WNW,286,3.0,0.0,80,0.00,CLR,OVC,0.14,WeatherDisplay:10.37,2013-02-26 01:32:00,
2013-02-25 17:37:00,40.9,35.2,30.15,WNW,288,1.0,0.0,80,0.00,CLR,OVC,0.14,WeatherDisplay:10.37,2013-02-26 01:37:00,
2013-02-25 17:42:00,40.8,35.1,30.15,WNW,299,6.0,0.0,80,0.00,CLR,OVC,0.14,WeatherDisplay:10.37,2013-02-26 01:42:00,
2013-02-25 17:47:00,40.7,35.0,30.15,NW,304,1.0,0.0,80,0.00,CLR,OVC,0.14,WeatherDisplay:10.37,2013-02-26 01:47:00,
2013-02-25 17:57:00,40.2,34.5,30.16,NW,307,1.0,0.0,80,0.00,CLR,OVC,0.14,WeatherDisplay:10.37,2013-02-26 01:57:00,
2013-02-25 18:02:00,40.0,34.9,30.16,NW,306,0.0,0.0,82,0.00,CLR,OVC,0.14,WeatherDisplay:10.37,2013-02-26 02:02:00,
2013-02-25 18:07:00,39.7,34.9,30.16,WNW,301,2.0,0.0,83,0.00,CLR,OVC,0.14,WeatherDisplay:10.37,2013-02-26 02:07:00,
2013-02-25 18:12:00,39.4,34.7,30.16,NW,326,1.0,0.0,83,0.00,CLR,OVC,0.14,WeatherDisplay:10.37,2013-02-26 02:12:00,
2013-02-25 18:17:00,39.2,34.5,30.17,NW,304,0.0,0.0,83,0.00,CLR,OVC,0.14,WeatherDisplay:10.37,2013-02-26 02:17:00,
2013-02-25 18:22:00,39.1,34.4,30.17,WNW,300,1.0,0.0,83,0.00,CLR,OVC,0.14,WeatherDisplay:10.37,2013-02-26 02:22:00,
2013-02-25 18:32:00,38.8,34.7,30.17,West,272,1.0,0.0,85,0.00,CLR,OVC,0.14,WeatherDisplay:10.37,2013-02-26 02:32:00,
2013-02-25 18:37:00,38.7,34.3,30.18,NW,319,0.0,0.0,84,0.00,CLR,OVC,0.14,WeatherDisplay:10.37,2013-02-26 02:37:00,
2013-02-25 18:42:00,38.6,34.2,30.18,NNW,343,3.0,0.0,84,0.00,CLR,OVC,0.14,WeatherDisplay:10.37,2013-02-26 02:42:00,
2013-02-25 18:52:00,38.8,34.7,30.19,NW,312,1.0,0.0,85,0.00,CLR,OVC,0.14,WeatherDisplay:10.37,2013-02-26 02:52:00,
2013-02-25 18:57:00,38.7,34.3,30.19,SW,230,1.0,0.0,84,0.00,CLR,OVC,0.14,WeatherDisplay:10.37,2013-02-26 02:57:00,
2013-02-25 19:02:00,38.7,34.6,30.19,North,9,0.0,0.0,85,0.00,CLR,OVC,0.14,WeatherDisplay:10.37,2013-02-26 03:02:00,
2013-02-25 19:07:00,38.7,34.6,30.19,NW,325,0.0,0.0,85,0.00,CLR,OVC,0.14,WeatherDisplay:10.37,2013-02-26 03:07:00,
2013-02-25 19:12:00,38.7,33.7,30.19,West,264,1.0,0.0,82,0.00,CLR,OVC,0.14,WeatherDisplay:10.37,2013-02-26 03:12:00,
2013-02-25 19:22:00,38.8,33.8,30.20,West,280,2.0,0.0,82,0.00,CLR,OVC,0.14,WeatherDisplay:10.37,2013-02-26 03:22:00,
2013-02-25 19:27:00,38.8,34.4,30.20,WNW,298,0.0,0.0,84,0.00,CLR,OVC,0.14,WeatherDisplay:10.37,2013-02-26 03:27:00,
2013-02-25 19:32:00,38.8,34.4,30.20,WNW,285,0.0,0.0,84,0.00,CLR,OVC,0.14,WeatherDisplay:10.37,2013-02-26 03:32:00,
2013-02-25 19:42:00,38.7,34.2,30.21,SW,235,0.0,0.0,84,0.00,CLR,OVC,0.14,WeatherDisplay:10.37,2013-02-26 03:42:00,
2013-02-25 19:47:00,38.6,34.8,30.21,SSW,210,2.0,0.0,86,0.00,CLR,OVC,0.14,WeatherDisplay:10.37,2013-02-26 03:47:00,
2013-02-25 19:52:00,38.6,34.5,30.21,SSW,198,1.0,0.0,85,0.00,CLR,OVC,0.14,WeatherDisplay:10.37,2013-02-26 03:52:00,
2013-02-25 20:02:00,38.6,35.7,30.21,SSW,199,1.0,0.0,89,0.00,CLR,OVC,0.14,WeatherDisplay:10.37,2013-02-26 04:02:00,
2013-02-25 20:07:00,38.6,35.6,30.22,SW,220,3.0,0.0,89,0.00,CLR,OVC,0.14,WeatherDisplay:10.37,2013-02-26 04:07:00,
2013-02-25 20:12:00,38.5,35.8,30.22,SSW,212,1.0,0.0,90,0.00,CLR,OVC,0.14,WeatherDisplay:10.37,2013-02-26 04:12:00,
2013-02-25 20:17:00,38.4,35.7,30.22,South,186,0.0,0.0,90,0.00,CLR,OVC,0.14,WeatherDisplay:10.37,2013-02-26 04:17:00,
2013-02-25 20:22:00,38.3,35.9,30.23,SW,226,0.0,0.0,91,0.00,CLR,OVC,0.14,WeatherDisplay:10.37,2013-02-26 04:22:00,
2013-02-25 20:27:00,38.2,35.8,30.23,SW,226,1.0,0.0,91,0.00,CLR,OVC,0.14,WeatherDisplay:10.37,2013-02-26 04:27:00,
2013-02-25 20:32:00,38.2,35.8,30.23,SSE,153,0.0,0.0,91,0.00,CLR,OVC,0.14,WeatherDisplay:10.37,2013-02-26 04:32:00,
2013-02-25 20:37:00,38.1,36.0,30.24,South,170,0.0,0.0,92,0.00,CLR,OVC,0.14,WeatherDisplay:10.37,2013-02-26 04:37:00,
2013-02-25 20:42:00,38.0,35.9,30.24,SSE,168,0.0,0.0,92,0.00,CLR,OVC,0.14,WeatherDisplay:10.37,2013-02-26 04:42:00,
2013-02-25 20:47:00,37.9,35.8,30.24,SSE,166,0.0,0.0,92,0.00,CLR,OVC,0.14,WeatherDisplay:10.37,2013-02-26 04:47:00,
2013-02-25 20:57:00,37.8,35.9,30.25,SSW,195,0.0,0.0,93,0.00,CLR,OVC,0.14,WeatherDisplay:10.37,2013-02-26 04:57:00,
2013-02-25 21:02:00,37.7,35.9,30.25,SW,230,0.0,0.0,93,0.00,CLR,OVC,0.14,WeatherDisplay:10.37,2013-02-26 05:02:00,
2013-02-25 21:07:00,37.6,35.5,30.25,South,186,0.0,0.0,92,0.00,CLR,OVC,0.14,WeatherDisplay:10.37,2013-02-26 05:07:00,
2013-02-25 21:12:00,37.5,35.7,30.25,SSW,199,1.0,0.0,93,0.00,CLR,OVC,0.14,WeatherDisplay:10.37,2013-02-26 05:12:00,
2013-02-25 21:22:00,37.3,35.5,30.25,SSE,164,1.0,0.0,93,0.00,CLR,OVC,0.14,WeatherDisplay:10.37,2013-02-26 05:22:00,
2013-02-25 21:27:00,37.2,35.4,30.25,SSE,162,0.0,0.0,93,0.00,CLR,OVC,0.14,WeatherDisplay:10.37,2013-02-26 05:27:00,
2013-02-25 21:32:00,37.1,35.3,30.25,SSE,162,0.0,0.0,93,0.00,CLR,OVC,0.14,WeatherDisplay:10.37,2013-02-26 05:32:00,
2013-02-25 21:37:00,37.0,35.2,30.25,SSE,163,0.0,0.0,93,0.00,CLR,OVC,0.14,WeatherDisplay:10.37,2013-02-26 05:37:00,
2013-02-25 21:42:00,36.9,35.0,30.26,SSE,163,0.0,0.0,93,0.00,CLR,OVC,0.14,WeatherDisplay:10.37,2013-02-26 05:42:00,
2013-02-25 21:47:00,36.7,34.8,30.26,SSE,161,0.0,0.0,93,0.00,CLR,OVC,0.14,WeatherDisplay:10.37,2013-02-26 05:47:00,
2013-02-25 21:52:00,36.5,34.7,30.26,SSE,153,0.0,0.0,93,0.00,CLR,OVC,0.14,WeatherDisplay:10.37,2013-02-26 05:52:00,
2013-02-25 21:57:00,36.4,34.6,30.27,SE,143,0.0,0.0,93,0.00,CLR,OVC,0.14,WeatherDisplay:10.37,2013-02-26 05:57:00,
2013-02-25 22:02:00,36.3,34.7,30.27,SE,130,0.0,0.0,94,0.00,CLR,OVC,0.14,WeatherDisplay:10.37,2013-02-26 06:02:00,
2013-02-25 22:07:00,36.2,34.6,30.27,SE,129,0.0,0.0,94,0.00,CLR,OVC,0.14,WeatherDisplay:10.37,2013-02-26 06:07:00,
2013-02-25 22:12:00,36.2,34.9,30.27,SE,138,0.0,0.0,95,0.00,CLR,OVC,0.14,WeatherDisplay:10.37,2013-02-26 06:12:00,
2013-02-25 22:17:00,36.1,34.8,30.27,SSE,150,0.0,0.0,95,0.00,CLR,OVC,0.14,WeatherDisplay:10.37,2013-02-26 06:17:00,
2013-02-25 22:22:00,36.1,34.8,30.27,SSE,150,0.0,0.0,95,0.00,CLR,OVC,0.14,WeatherDisplay:10.37,2013-02-26 06:22:00,
2013-02-25 22:27:00,36.0,34.7,30.27,SSE,150,0.0,0.0,95,0.00,CLR,OVC,0.14,WeatherDisplay:10.37,2013-02-26 06:27:00,
2013-02-25 22:32:00,36.0,34.7,30.28,SSE,150,0.0,0.0,95,0.00,CLR,OVC,0.14,WeatherDisplay:10.37,2013-02-26 06:32:00,
2013-02-25 22:37:00,35.9,34.6,30.27,SSE,149,0.0,0.0,95,0.00,CLR,OVC,0.14,WeatherDisplay:10.37,2013-02-26 06:37:00,
2013-02-25 22:42:00,35.7,34.1,30.28,SE,137,0.0,0.0,94,0.00,CLR,OVC,0.14,WeatherDisplay:10.37,2013-02-26 06:42:00,
2013-02-25 22:47:00,35.6,34.0,30.28,East,84,0.0,0.0,94,0.00,CLR,OVC,0.14,WeatherDisplay:10.37,2013-02-26 06:47:00,
2013-02-25 22:52:00,35.5,34.2,30.28,ENE,60,0.0,0.0,95,0.00,CLR,OVC,0.14,WeatherDisplay:10.37,2013-02-26 06:52:00,
2013-02-25 22:57:00,35.5,34.2,30.28,SE,133,0.0,0.0,95,0.00,CLR,OVC,0.14,WeatherDisplay:10.37,2013-02-26 06:57:00,
2013-02-25 23:02:00,35.5,34.5,30.28,South,182,0.0,0.0,96,0.00,CLR,OVC,0.14,WeatherDisplay:10.37,2013-02-26 07:02:00,
2013-02-25 23:07:00,35.5,34.5,30.27,SSE,158,0.0,0.0,96,0.00,CLR,OVC,0.14,WeatherDisplay:10.37,2013-02-26 07:07:00,
2013-02-25 23:12:00,35.6,34.6,30.28,South,170,0.0,0.0,96,0.00,CLR,OVC,0.14,WeatherDisplay:10.37,2013-02-26 07:12:00,
2013-02-25 23:17:00,35.6,34.6,30.28,South,187,0.0,0.0,96,0.00,CLR,OVC,0.14,WeatherDisplay:10.37,2013-02-26 07:17:00,
2013-02-25 23:22:00,35.6,34.6,30.28,South,188,3.0,0.0,96,0.00,CLR,OVC,0.14,WeatherDisplay:10.37,2013-02-26 07:22:00,
2013-02-25 23:27:00,35.6,34.6,30.28,South,188,0.0,0.0,96,0.00,CLR,OVC,0.14,WeatherDisplay:10.37,2013-02-26 07:27:00,
2013-02-25 23:32:00,35.6,34.6,30.28,SSW,198,0.0,0.0,96,0.00,CLR,OVC,0.14,WeatherDisplay:10.37,2013-02-26 07:32:00,
2013-02-25 23:37:00,35.5,34.2,30.28,SSW,207,0.0,0.0,95,0.00,CLR,OVC,0.14,WeatherDisplay:10.37,2013-02-26 07:37:00,
2013-02-25 23:42:00,35.4,34.1,30.28,SSW,205,0.0,0.0,95,0.00,CLR,OVC,0.14,WeatherDisplay:10.37,2013-02-26 07:42:00,
2013-02-25 23:47:00,35.3,34.1,30.28,SSE,164,0.0,0.0,95,0.00,CLR,OVC,0.14,WeatherDisplay:10.37,2013-02-26 07:47:00,
2013-02-25 23:52:00,35.2,34.0,30.28,SSE,147,0.0,0.0,95,0.00,CLR,OVC,0.14,WeatherDisplay:10.37,2013-02-26 07:52:00,
2013-02-25 23:57:00,35.1,33.9,30.29,SSE,151,0.0,0.0,95,0.00,CLR,OVC,0.14,WeatherDisplay:10.37,2013-02-26 07:57:00,